Time;durP1;ratioP1;P1;durP2;ratioP2;P2;SDS_P1;SDS_P2;PMS_P1;PMS_P2;Temp;Humidity;BMP_temperature;BMP_pressure;BME280_temperature;BME280_humidity;BME280_pressure;Samples;Min_cycle;Max_cycle;Signal;HPM_P1;HPM_P2
2022/04/01 00:00:58;;;;;;;17.92;14.43;;;;;;;1.75;100.00;93852.41;6370730;22;20002;-64
2022/04/01 00:03:23;;;;;;;18.45;14.82;;;;;;;1.71;100.00;93857.88;6370549;22;20002;-63
2022/04/01 00:05:49;;;;;;;27.25;16.58;;;;;;;1.77;100.00;93853.94;6370488;22;20002;-63
2022/04/01 00:08:14;;;;;;;21.10;15.48;;;;;;;1.80;100.00;93858.84;6370518;22;20025;-63
2022/04/01 00:10:40;;;;;;;18.85;14.63;;;;;;;1.80;100.00;93858.00;6371166;22;20006;-64
2022/04/01 00:13:06;;;;;;;20.30;13.65;;;;;;;1.74;100.00;93861.16;6370637;22;20055;-63
2022/04/01 00:15:32;;;;;;;19.92;13.50;;;;;;;1.81;100.00;93862.25;6370779;22;20010;-63
2022/04/01 00:17:58;;;;;;;18.13;13.27;;;;;;;1.88;100.00;93853.00;6370368;22;20002;-64
2022/04/01 00:20:24;;;;;;;18.50;11.98;;;;;;;1.93;100.00;93858.59;6370605;22;20071;-63
2022/04/01 00:22:49;;;;;;;20.25;14.45;;;;;;;1.86;100.00;93858.31;6370591;22;20012;-63
2022/04/01 00:25:15;;;;;;;15.90;13.48;;;;;;;1.69;100.00;93854.59;6370526;22;20006;-63
2022/04/01 00:27:40;;;;;;;19.55;14.10;;;;;;;1.69;100.00;93852.00;6370396;22;20006;-64
2022/04/01 00:30:06;;;;;;;16.77;14.25;;;;;;;1.73;100.00;93857.72;6370953;22;20007;-64
2022/04/01 00:32:32;;;;;;;18.63;14.18;;;;;;;1.76;100.00;93849.66;6370148;22;20342;-64
2022/04/01 00:34:58;;;;;;;20.50;14.40;;;;;;;1.79;100.00;93846.00;6370143;22;20009;-64
2022/04/01 00:37:23;;;;;;;16.88;12.90;;;;;;;1.77;100.00;93843.56;6370317;22;20438;-64
2022/04/01 00:39:49;;;;;;;17.63;13.43;;;;;;;1.81;100.00;93834.53;6369719;22;20007;-63
2022/04/01 00:42:14;;;;;;;17.70;13.35;;;;;;;1.79;100.00;93833.03;6370797;22;20012;-64
2022/04/01 00:44:41;;;;;;;18.85;13.30;;;;;;;1.76;100.00;93831.50;6370348;22;20044;-64
2022/04/01 00:47:09;;;;;;;16.73;12.90;;;;;;;1.71;100.00;93831.09;6370468;22;20002;-63
2022/04/01 00:49:35;;;;;;;19.90;15.45;;;;;;;1.68;100.00;93824.41;6370171;22;20018;-63
2022/04/01 00:52:05;;;;;;;21.67;14.18;;;;;;;1.66;100.00;93821.13;6370258;22;20010;-64
2022/04/01 00:54:31;;;;;;;15.48;13.20;;;;;;;1.71;100.00;93820.72;6370363;22;20446;-64
2022/04/01 00:56:56;;;;;;;17.83;13.82;;;;;;;1.66;100.00;93818.53;6369461;22;19998;-64
2022/04/01 00:59:24;;;;;;;18.92;14.85;;;;;;;1.66;100.00;93810.75;6368660;22;20010;-64
2022/04/01 01:01:50;;;;;;;18.02;14.55;;;;;;;1.62;100.00;93804.19;6368600;22;20091;-64
2022/04/01 01:04:18;;;;;;;21.88;14.73;;;;;;;1.60;100.00;93797.50;6368720;22;20006;-64
2022/04/01 01:06:51;;;;;;;19.98;14.75;;;;;;;1.62;100.00;93804.19;6368407;22;20052;-64
2022/04/01 01:09:18;;;;;;;19.65;13.95;;;;;;;1.65;100.00;93814.28;6368764;22;20732;-64
2022/04/01 01:11:45;;;;;;;19.95;14.25;;;;;;;1.61;100.00;93809.50;6368234;22;20006;-64
2022/04/01 01:14:13;;;;;;;20.13;14.90;;;;;;;1.58;100.00;93800.22;6368817;22;19998;-64
2022/04/01 01:16:46;;;;;;;21.20;15.70;;;;;;;1.56;100.00;93800.38;6368900;22;20006;-64
2022/04/01 01:19:16;;;;;;;21.80;15.50;;;;;;;1.52;100.00;93792.97;6368477;22;20511;-64
2022/04/01 01:21:42;;;;;;;22.27;14.18;;;;;;;1.47;100.00;93795.97;6340226;22;20021;-63
2022/04/01 01:24:16;;;;;;;18.88;13.75;;;;;;;1.44;100.00;93793.63;6368484;22;20461;-63
2022/04/01 01:26:48;;;;;;;21.67;14.35;;;;;;;1.43;100.00;93800.59;6368489;22;20326;-64
2022/04/01 01:29:18;;;;;;;19.90;16.17;;;;;;;1.42;100.00;93791.16;6368615;22;20014;-64
2022/04/01 01:31:45;;;;;;;26.52;17.13;;;;;;;1.40;100.00;93793.06;6368541;22;20006;-64
2022/04/01 01:34:11;;;;;;;21.80;14.73;;;;;;;1.41;100.00;93789.53;6368290;22;20461;-64
2022/04/01 01:36:37;;;;;;;20.45;15.05;;;;;;;1.42;100.00;93793.75;6368343;22;19998;-63
2022/04/01 01:39:03;;;;;;;21.83;14.88;;;;;;;1.40;100.00;93781.91;6368280;22;20433;-64
2022/04/01 01:41:29;;;;;;;20.60;15.07;;;;;;;1.40;100.00;93789.69;6368211;22;20070;-64
2022/04/01 01:43:54;;;;;;;22.08;15.13;;;;;;;1.37;100.00;93790.75;6368432;22;20052;-64
2022/04/01 01:46:19;;;;;;;18.23;14.40;;;;;;;1.30;100.00;93776.69;6368406;22;20565;-64
2022/04/01 01:48:45;;;;;;;21.95;16.23;;;;;;;1.28;100.00;93773.41;6367053;22;20014;-64
2022/04/01 01:56:40;;;;;;;19.20;14.32;;;;;;;1.20;100.00;93762.84;6368169;22;20028;-64
2022/04/01 01:59:07;;;;;;;20.80;15.82;;;;;;;1.19;100.00;93766.41;6368121;22;20002;-64
2022/04/01 02:01:33;;;;;;;19.30;14.50;;;;;;;1.18;100.00;93760.41;6368140;22;20048;-64
2022/04/01 02:04:01;;;;;;;21.13;14.75;;;;;;;1.18;100.00;93764.75;6368006;22;20700;-63
2022/04/01 02:06:26;;;;;;;20.42;15.45;;;;;;;1.18;100.00;93760.41;6368022;22;19999;-64
2022/04/01 02:08:53;;;;;;;16.73;14.20;;;;;;;1.12;100.00;93758.34;6367707;22;20029;-64
2022/04/01 02:11:21;;;;;;;18.98;14.77;;;;;;;1.06;100.00;93757.09;6368112;22;20009;-64
2022/04/01 02:13:47;;;;;;;19.42;15.70;;;;;;;1.04;100.00;93759.00;6368237;22;20002;-64
2022/04/01 02:16:13;;;;;;;24.08;15.82;;;;;;;1.03;100.00;93762.56;6367957;22;20136;-64
2022/04/01 02:18:38;;;;;;;24.90;17.70;;;;;;;1.18;100.00;93759.56;6367923;22;20028;-64
2022/04/01 02:21:10;;;;;;;23.40;17.45;;;;;;;1.41;100.00;93765.38;6367598;22;20013;-64
2022/04/01 02:23:38;;;;;;;22.10;16.60;;;;;;;1.69;100.00;93766.38;6367427;22;20002;-63
2022/04/01 02:26:04;;;;;;;20.77;16.65;;;;;;;1.46;100.00;93777.94;6367718;22;20700;-63
2022/04/01 02:28:29;;;;;;;25.48;18.60;;;;;;;1.28;100.00;93768.22;6367462;22;19998;-64
2022/04/01 02:30:55;;;;;;;31.23;17.73;;;;;;;1.21;100.00;93773.09;6367668;22;20461;-64
2022/04/01 02:33:20;;;;;;;27.08;18.77;;;;;;;1.16;100.00;93767.50;6367624;22;20002;-64
2022/04/01 02:35:46;;;;;;;35.65;20.83;;;;;;;1.11;100.00;93757.53;6367245;22;20002;-64
2022/04/01 02:38:11;;;;;;;44.90;20.45;;;;;;;1.13;100.00;93765.97;6367469;22;20073;-64
2022/04/01 02:40:37;;;;;;;42.17;21.65;;;;;;;1.17;100.00;93769.16;6367579;22;20076;-64
2022/04/01 02:43:02;;;;;;;31.38;20.88;;;;;;;1.22;100.00;93766.97;6367954;22;20010;-64
2022/04/01 02:45:28;;;;;;;36.28;20.52;;;;;;;1.27;100.00;93764.78;6367620;22;19998;-64
2022/04/01 02:47:53;;;;;;;31.10;19.17;;;;;;;1.32;100.00;93764.41;6367254;22;20462;-64
2022/04/01 02:50:20;;;;;;;33.58;20.50;;;;;;;1.37;100.00;93754.44;6367502;22;20006;-64
2022/04/01 02:52:45;;;;;;;33.40;19.30;;;;;;;1.43;100.00;93756.50;6368102;22;20009;-64
2022/04/01 02:55:11;;;;;;;25.73;18.05;;;;;;;1.40;100.00;93751.56;6367369;22;20017;-64
2022/04/01 02:57:36;;;;;;;25.73;18.02;;;;;;;1.41;100.00;93755.00;6367749;22;20006;-64
2022/04/01 03:00:09;;;;;;;27.17;17.05;;;;;;;1.41;100.00;93760.19;6367567;22;20417;-64
2022/04/01 03:02:35;;;;;;;26.70;17.50;;;;;;;1.39;100.00;93752.53;6367440;22;20053;-64
2022/04/01 03:05:03;;;;;;;25.98;18.27;;;;;;;1.46;100.00;93752.03;6367438;22;20346;-64
2022/04/01 03:07:28;;;;;;;25.77;19.48;;;;;;;1.50;100.00;93754.19;6367437;22;20430;-64
2022/04/01 03:09:54;;;;;;;28.45;17.58;;;;;;;1.55;100.00;93753.78;6367038;22;20073;-63
2022/04/01 03:12:19;;;;;;;29.67;16.65;;;;;;;1.53;100.00;93748.72;6367726;22;20010;-64
2022/04/01 03:14:45;;;;;;;25.15;17.15;;;;;;;1.58;100.00;93750.94;6367754;22;20017;-64
2022/04/01 03:17:11;;;;;;;22.00;16.52;;;;;;;1.63;100.00;93753.94;6367185;22;20002;-64
2022/04/01 03:19:39;;;;;;;24.30;16.23;;;;;;;1.67;100.00;93755.31;6367039;22;20009;-64
2022/04/01 03:22:04;;;;;;;21.73;16.35;;;;;;;1.70;100.00;93756.81;6367222;22;20006;-64
2022/04/01 03:24:30;;;;;;;25.52;18.02;;;;;;;1.70;100.00;93754.22;6367385;22;20025;-64
2022/04/01 03:26:55;;;;;;;24.13;16.75;;;;;;;1.70;100.00;93754.22;6366921;22;20014;-64
2022/04/01 03:29:21;;;;;;;23.45;17.25;;;;;;;1.75;100.00;93751.22;6367239;22;20002;-64
2022/04/01 03:31:47;;;;;;;24.67;17.33;;;;;;;1.78;100.00;93745.75;6367179;22;20011;-64
2022/04/01 03:34:13;;;;;;;25.55;16.27;;;;;;;1.80;100.00;93744.69;6367090;22;20030;-64
2022/04/01 03:36:39;;;;;;;24.40;16.65;;;;;;;1.87;100.00;93750.13;6366999;22;20005;-64
2022/04/01 03:39:04;;;;;;;23.23;16.73;;;;;;;1.91;100.00;93751.50;6367156;22;20008;-64
2022/04/01 03:41:30;;;;;;;20.13;15.95;;;;;;;1.95;100.00;93747.69;6367033;22;20462;-64
2022/04/01 03:43:55;;;;;;;22.83;16.52;;;;;;;1.93;100.00;93743.56;6339442;22;20010;-64
2022/04/01 03:46:26;;;;;;;21.80;16.95;;;;;;;1.92;100.00;93747.13;6367152;22;20003;-64
2022/04/01 03:49:02;;;;;;;23.50;17.05;;;;;;;1.88;100.00;93756.97;6366781;22;20097;-64
2022/04/01 03:51:29;;;;;;;25.27;18.30;;;;;;;1.84;100.00;93748.63;6367055;22;20006;-64
2022/04/01 03:54:01;;;;;;;25.70;18.25;;;;;;;1.82;100.00;93755.75;6367170;22;20101;-64
2022/04/01 03:56:35;;;;;;;24.42;16.80;;;;;;;1.83;100.00;93749.59;6367094;22;20005;-64
2022/04/01 03:59:03;;;;;;;23.33;17.45;;;;;;;1.89;100.00;93748.22;6367106;22;20067;-64
2022/04/01 04:01:29;;;;;;;25.00;17.77;;;;;;;1.91;100.00;93743.72;6367127;22;20459;-64
2022/04/01 04:03:57;;;;;;;24.77;16.38;;;;;;;1.93;100.00;93749.59;6367006;22;20069;-64
2022/04/01 04:06:24;;;;;;;26.88;17.67;;;;;;;2.04;100.00;93750.41;6367116;22;20668;-64
2022/04/01 04:08:53;;;;;;;23.60;16.73;;;;;;;2.05;100.00;93746.84;6367183;22;20021;-65
2022/04/01 04:11:23;;;;;;;23.88;16.67;;;;;;;1.98;100.00;93737.00;6366867;22;20007;-64
2022/04/01 04:13:51;;;;;;;19.98;15.90;;;;;;;1.97;100.00;93737.97;6367152;22;19998;-64
2022/04/01 04:16:19;;;;;;;22.60;15.73;;;;;;;2.05;100.00;93741.66;6367014;22;19994;-64
2022/04/01 04:18:51;;;;;;;22.23;16.10;;;;;;;2.12;100.00;93735.78;6366547;22;20007;-64
2022/04/01 04:21:30;;;;;;;19.33;14.38;;;;;;;2.19;100.00;93736.03;6366914;22;20503;-64
2022/04/01 04:24:01;;;;;;;21.33;16.55;;;;;;;2.23;100.00;93741.78;6366832;22;20029;-64
2022/04/01 04:26:29;;;;;;;19.90;16.23;;;;;;;2.25;100.00;93737.28;6366808;22;20021;-64
2022/04/01 04:29:01;;;;;;;21.20;16.05;;;;;;;2.29;100.00;93739.44;6366843;22;20022;-64
2022/04/01 04:31:33;;;;;;;20.17;16.35;;;;;;;2.33;100.00;93741.78;6366730;22;20407;-64
2022/04/01 04:34:03;;;;;;;20.95;16.52;;;;;;;2.33;100.00;93732.19;6368919;22;20101;-64
2022/04/01 04:36:39;;;;;;;20.83;16.15;;;;;;;2.42;100.00;93733.94;6368826;22;19998;-64
2022/04/01 04:39:28;;;;;;;23.40;16.63;;;;;;;2.31;100.00;93725.47;6368902;22;20368;-64
2022/04/01 04:41:55;;;;;;;21.50;17.17;;;;;;;2.19;100.00;93730.84;6368706;22;20059;-64
2022/04/01 04:44:24;;;;;;;23.35;17.25;;;;;;;2.13;100.00;93734.81;6369159;22;20073;-64
2022/04/01 04:46:50;;;;;;;21.65;16.98;;;;;;;2.17;100.00;93730.16;6369149;22;20064;-64
2022/04/01 04:49:17;;;;;;;26.17;17.67;;;;;;;2.21;100.00;93726.34;6368829;22;20010;-64
2022/04/01 04:51:47;;;;;;;23.63;17.27;;;;;;;2.26;100.00;93733.72;6368822;22;20037;-64
2022/04/01 04:54:13;;;;;;;20.02;15.68;;;;;;;2.27;100.00;93733.56;6369071;22;20002;-64
2022/04/01 04:56:41;;;;;;;25.58;16.73;;;;;;;2.29;100.00;93734.22;6369154;22;20025;-64
2022/04/01 04:59:08;;;;;;;25.63;18.65;;;;;;;2.31;100.00;93734.09;6368785;22;20051;-64
2022/04/01 05:01:42;;;;;;;23.85;17.58;;;;;;;2.35;100.00;93737.25;6368972;22;20006;-64
2022/04/01 05:04:29;;;;;;;23.90;17.02;;;;;;;2.35;100.00;93732.06;6368825;22;20013;-64
2022/04/01 05:07:20;;;;;;;19.77;15.45;;;;;;;2.36;100.00;93739.69;6368952;22;20060;-64
2022/04/01 05:09:56;;;;;;;21.73;16.60;;;;;;;2.39;100.00;93733.41;6368936;22;20009;-64
2022/04/01 05:13:08;;;;;;;23.98;17.40;;;;;;;2.39;100.00;93741.19;6368829;22;20006;-64
2022/04/01 05:15:36;;;;;;;19.98;16.77;;;;;;;2.39;100.00;93739.41;6284574;22;20449;-64
2022/04/01 05:18:25;;;;;;;26.02;19.25;;;;;;;2.32;100.00;93753.94;6368854;22;20016;-64
2022/04/01 05:20:58;;;;;;;29.27;21.75;;;;;;;2.48;100.00;93748.16;6340937;22;20005;-64
2022/04/01 05:23:48;;;;;;;23.58;18.60;;;;;;;2.78;100.00;93756.69;6368807;22;20006;-64
2022/04/01 05:26:15;;;;;;;24.63;18.27;;;;;;;2.69;100.00;93755.75;6368604;22;20018;-64
2022/04/01 05:29:01;;;;;;;26.95;17.35;;;;;;;2.55;100.00;93764.00;6368226;22;20009;-64
2022/04/01 05:31:30;;;;;;;23.08;16.10;;;;;;;2.51;100.00;93758.25;6368041;22;20002;-64
2022/04/01 05:34:04;;;;;;;22.08;16.20;;;;;;;2.44;100.00;93764.97;6368812;22;20003;-64
2022/04/01 05:36:30;;;;;;;21.70;17.05;;;;;;;2.36;100.00;93768.25;6368313;22;19998;-64
2022/04/01 05:38:57;;;;;;;24.25;17.35;;;;;;;2.45;100.00;93768.41;6368487;22;20002;-64
2022/04/01 05:41:22;;;;;;;24.48;17.77;;;;;;;2.49;100.00;93773.16;6366703;22;20010;-64
2022/04/01 05:43:48;;;;;;;22.83;17.02;;;;;;;2.58;100.00;93780.13;6312632;22;20343;-64
2022/04/01 05:46:20;;;;;;;25.95;18.25;;;;;;;2.76;100.00;93791.56;6368369;22;20002;-64
2022/04/01 05:48:46;;;;;;;23.13;18.60;;;;;;;2.71;100.00;93776.41;6368365;22;20026;-64
2022/04/01 05:51:14;;;;;;;24.42;18.30;;;;;;;2.70;100.00;93780.78;6368152;22;20103;-64
2022/04/01 05:53:47;;;;;;;21.75;15.40;;;;;;;3.08;98.96;93780.78;6338728;22;20345;-64
2022/04/01 05:56:17;;;;;;;19.30;15.57;;;;;;;2.71;99.23;93787.63;6366375;22;20002;-67
2022/04/01 05:58:42;;;;;;;18.85;14.65;;;;;;;2.78;98.46;93800.88;6367479;22;20350;-61
2022/04/01 06:01:23;;;;;;;20.95;15.23;;;;;;;2.89;98.72;93804.25;6367605;22;19998;-65
2022/04/01 06:03:51;;;;;;;19.52;16.52;;;;;;;2.53;99.61;93817.88;6368628;22;20006;-65
2022/04/01 06:06:29;;;;;;;18.08;13.60;;;;;;;2.48;100.00;93801.88;6368105;22;20026;-64
2022/04/01 06:09:00;;;;;;;13.25;8.90;;;;;;;2.46;98.36;93827.19;6367745;22;20013;-69
2022/04/01 06:11:52;;;;;;;9.52;7.95;;;;;;;2.31;96.40;93842.34;6368123;22;20014;-67
2022/04/01 06:14:47;;;;;;;7.50;6.28;;;;;;;1.79;94.87;93864.16;6366933;22;20071;-66
2022/04/01 06:17:23;;;;;;;6.15;5.00;;;;;;;1.42;95.72;93879.34;6362692;22;20020;-68
2022/04/01 06:19:51;;;;;;;4.68;4.32;;;;;;;1.22;97.36;93904.38;6368083;22;20109;-68
2022/04/01 06:22:18;;;;;;;4.07;3.63;;;;;;;1.10;96.59;93907.97;6368153;22;20037;-65
2022/04/01 06:24:44;;;;;;;2.85;2.65;;;;;;;1.06;96.88;93922.97;6368044;22;20085;-65
2022/04/01 06:27:13;;;;;;;3.10;2.88;;;;;;;0.80;96.69;93936.31;6367507;22;20033;-65
2022/04/01 06:29:41;;;;;;;3.20;3.00;;;;;;;0.74;97.31;93956.72;6368343;22;20010;-67
2022/04/01 06:32:32;;;;;;;3.00;2.80;;;;;;;0.71;97.45;93952.59;6367998;22;20010;-65
2022/04/01 06:35:23;;;;;;;2.72;2.53;;;;;;;0.52;98.04;93968.81;6293613;22;20116;-65
2022/04/01 06:37:57;;;;;;;2.95;2.72;;;;;;;0.67;97.87;93974.53;6360238;22;20033;-65
2022/04/01 06:40:27;;;;;;;2.50;2.40;;;;;;;0.65;97.81;93984.19;6367945;22;20102;-65
2022/04/01 06:42:56;;;;;;;2.17;2.08;;;;;;;0.53;98.47;94002.34;6367971;22;20003;-61
2022/04/01 06:45:21;;;;;;;2.40;2.25;;;;;;;0.45;98.30;94001.34;6368126;22;20022;-62
2022/04/01 06:47:47;;;;;;;2.80;2.60;;;;;;;0.47;98.85;94005.44;6367711;22;20465;-62
2022/04/01 06:50:16;;;;;;;2.17;2.08;;;;;;;0.30;100.00;94034.41;6367697;22;20018;-63
2022/04/01 06:52:42;;;;;;;2.63;2.42;;;;;;;0.33;100.00;94040.19;6367530;22;20068;-59
2022/04/01 06:55:08;;;;;;;2.17;2.08;;;;;;;0.32;99.87;94048.06;6365717;22;19998;-60
2022/04/01 06:57:34;;;;;;;3.58;3.22;;;;;;;0.26;100.00;94065.72;6365909;22;20006;-62
2022/04/01 07:00:00;;;;;;;2.60;2.40;;;;;;;0.12;100.00;94073.75;6365870;22;20013;-61
2022/04/01 07:02:25;;;;;;;2.72;2.53;;;;;;;0.10;100.00;94083.38;6365897;22;20411;-61
2022/04/01 07:04:50;;;;;;;3.88;3.58;;;;;;;0.07;100.00;94093.94;6366094;22;20007;-62
2022/04/01 07:07:16;;;;;;;1.85;1.77;;;;;;;0.09;100.00;94097.25;6365976;22;20009;-61
2022/04/01 07:09:41;;;;;;;1.48;1.48;;;;;;;0.07;100.00;94109.47;6366266;22;20011;-63
2022/04/01 07:12:07;;;;;;;1.88;1.77;;;;;;;0.02;100.00;94117.63;6365607;22;20502;-62
2022/04/01 07:14:32;;;;;;;2.00;1.90;;;;;;;-0.05;100.00;94117.25;6366067;22;20029;-64
2022/04/01 07:16:59;;;;;;;4.60;4.22;;;;;;;-0.14;100.00;94120.50;6365105;22;20002;-63
2022/04/01 07:19:24;;;;;;;8.65;7.93;;;;;;;-0.14;100.00;94136.03;6365241;22;19999;-63
2022/04/01 07:21:50;;;;;;;3.63;3.33;;;;;;;-0.02;100.00;94136.88;6365767;22;20002;-64
2022/04/01 07:24:15;;;;;;;3.38;2.20;;;;;;;0.04;100.00;94139.03;6365786;22;20016;-64
2022/04/01 07:26:41;;;;;;;1.70;1.70;;;;;;;0.10;100.00;94145.47;6366015;22;20003;-64
2022/04/01 07:29:07;;;;;;;1.67;1.58;;;;;;;0.02;100.00;94146.09;6365943;22;20005;-65
2022/04/01 07:34:27;;;;;;;1.95;1.85;;;;;;;-0.02;100.00;94155.81;6365920;22;20067;-64
2022/04/01 07:36:53;;;;;;;2.17;2.08;;;;;;;0.00;100.00;94163.50;6365817;22;20003;-64
2022/04/01 07:39:18;;;;;;;3.10;2.80;;;;;;;-0.07;100.00;94164.88;6365781;22;20006;-64
2022/04/01 07:41:43;;;;;;;3.33;3.10;;;;;;;-0.16;100.00;94168.97;6365657;22;20390;-65
2022/04/01 07:44:09;;;;;;;5.60;5.10;;;;;;;-0.16;100.00;94168.97;6365772;22;20387;-64
2022/04/01 07:46:35;;;;;;;5.53;5.03;;;;;;;-0.19;100.00;94177.78;6365866;22;20002;-64
2022/04/01 07:49:00;;;;;;;11.50;8.38;;;;;;;-0.22;100.00;94183.19;6365451;22;20098;-64
2022/04/01 07:51:25;;;;;;;6.28;5.60;;;;;;;-0.22;100.00;94190.13;6365607;22;20010;-64
2022/04/01 07:53:51;;;;;;;3.25;3.05;;;;;;;-0.18;100.00;94188.94;6365808;22;20438;-63
2022/04/01 07:56:16;;;;;;;3.10;2.90;;;;;;;-0.15;100.00;94192.16;6365664;22;20093;-63
2022/04/01 07:58:41;;;;;;;3.97;3.67;;;;;;;-0.21;100.00;94202.13;6365831;22;20002;-64
2022/04/01 08:01:07;;;;;;;2.90;2.80;;;;;;;-0.19;100.00;94206.25;6365561;22;20047;-64
2022/04/01 08:03:32;;;;;;;2.65;2.55;;;;;;;-0.24;100.00;94217.88;6365437;22;20075;-63
2022/04/01 08:05:59;;;;;;;3.45;3.15;;;;;;;-0.25;100.00;94218.81;6365907;22;20022;-62
2022/04/01 08:08:24;;;;;;;2.10;2.00;;;;;;;-0.22;100.00;94224.59;6367870;22;19994;-61
2022/04/01 08:10:51;;;;;;;2.45;2.35;;;;;;;-0.15;100.00;94222.34;6367525;22;20014;-61
2022/04/01 08:13:16;;;;;;;1.98;1.88;;;;;;;-0.17;100.00;94229.41;6367677;22;20013;-61
2022/04/01 08:15:42;;;;;;;2.80;2.60;;;;;;;-0.14;100.00;94224.00;6367777;22;20334;-61
2022/04/01 08:18:07;;;;;;;4.65;4.25;;;;;;;-0.06;100.00;94232.03;6367354;22;20002;-62
2022/04/01 08:20:33;;;;;;;7.50;5.82;;;;;;;0.01;100.00;94236.75;6367575;22;20041;-62
2022/04/01 08:22:58;;;;;;;4.07;3.60;;;;;;;0.07;100.00;94238.88;6339734;22;19998;-62
2022/04/01 08:25:23;;;;;;;6.15;5.65;;;;;;;0.05;100.00;94245.94;6367819;22;19998;-62
2022/04/01 08:27:49;;;;;;;5.00;4.60;;;;;;;0.16;100.00;94258.09;6367618;22;20439;-62
2022/04/01 08:30:14;;;;;;;5.65;4.47;;;;;;;0.23;100.00;94257.53;6367537;22;20017;-62
2022/04/01 08:32:40;;;;;;;3.53;3.22;;;;;;;0.13;99.89;94261.75;6367351;22;20006;-63
2022/04/01 08:35:07;;;;;;;2.13;2.03;;;;;;;0.18;100.00;94259.63;6367582;22;20041;-63
2022/04/01 08:37:33;;;;;;;2.83;2.63;;;;;;;0.13;99.66;94266.91;6367368;22;20003;-63
2022/04/01 08:39:58;;;;;;;2.50;2.30;;;;;;;0.55;95.09;94277.59;6367199;22;20013;-63
2022/04/01 08:42:24;;;;;;;3.05;2.33;;;;;;;0.13;95.94;94283.25;6367172;22;20013;-63
2022/04/01 08:44:49;;;;;;;2.88;2.63;;;;;;;0.06;98.59;94286.41;6367342;22;20009;-63
2022/04/01 08:47:15;;;;;;;2.10;2.00;;;;;;;0.10;98.06;94295.59;6367672;22;20052;-63
2022/04/01 08:49:40;;;;;;;2.05;1.95;;;;;;;0.13;98.12;94297.97;6367215;22;20521;-63
2022/04/01 08:52:07;;;;;;;2.60;2.50;;;;;;;0.12;98.75;94293.75;6367437;22;20030;-66
2022/04/01 08:54:34;;;;;;;3.22;3.03;;;;;;;0.21;98.33;94299.97;6367321;22;20396;-63
2022/04/01 08:57:00;;;;;;;3.20;1.90;;;;;;;0.26;98.07;94313.44;6367125;22;20006;-62
2022/04/01 08:59:29;;;;;;;4.78;1.73;;;;;;;0.20;98.07;94309.53;6366447;22;20083;-63
2022/04/01 09:02:08;;;;;;;1.80;1.70;;;;;;;0.21;98.66;94311.16;6367394;22;20002;-63
2022/04/01 09:04:34;;;;;;;2.35;2.25;;;;;;;0.22;98.58;94323.19;6367273;22;20005;-64
2022/04/01 09:07:16;;;;;;;1.73;1.70;;;;;;;0.14;98.98;94315.97;6367289;22;20502;-63
2022/04/01 09:09:42;;;;;;;2.53;2.33;;;;;;;0.22;99.66;94312.81;6367123;22;20434;-63
2022/04/01 09:12:14;;;;;;;3.70;3.13;;;;;;;0.33;100.00;94318.97;6367224;22;20481;-63
2022/04/01 09:14:48;;;;;;;2.35;2.25;;;;;;;0.45;100.00;94307.69;6367355;22;20395;-63
2022/04/01 09:17:15;;;;;;;1.77;1.70;;;;;;;0.50;98.79;94310.78;6368215;22;20021;-63
2022/04/01 09:19:41;;;;;;;1.88;1.77;;;;;;;0.47;97.90;94305.00;6368445;22;19998;-63
2022/04/01 09:22:22;;;;;;;2.58;2.47;;;;;;;0.61;97.24;94306.56;6368333;22;20010;-63
2022/04/01 09:25:08;;;;;;;1.90;1.90;;;;;;;0.53;96.12;94309.72;6368861;22;20401;-62
2022/04/01 09:27:39;;;;;;;2.13;2.03;;;;;;;0.56;95.71;94310.31;6368594;22;20060;-63
2022/04/01 09:30:06;;;;;;;1.73;1.73;;;;;;;0.45;96.45;94317.25;6369031;22;20077;-63
2022/04/01 09:32:43;;;;;;;1.92;1.83;;;;;;;0.41;96.51;94314.88;6368514;22;20065;-63
2022/04/01 09:35:11;;;;;;;2.30;2.20;;;;;;;0.60;95.10;94320.47;6368766;22;20056;-63
2022/04/01 09:37:42;;;;;;;1.70;1.70;;;;;;;0.56;94.92;94315.50;6368817;22;20048;-63
2022/04/01 09:40:10;;;;;;;2.22;2.13;;;;;;;0.52;94.19;94321.03;6368577;22;20380;-63
2022/04/01 09:42:36;;;;;;;4.10;3.80;;;;;;;0.43;95.33;94325.94;6368638;22;20003;-63
2022/04/01 09:45:03;;;;;;;4.88;4.47;;;;;;;0.42;96.24;94323.47;6368473;22;20006;-63
2022/04/01 09:47:36;;;;;;;2.17;2.08;;;;;;;0.59;94.94;94321.41;6368346;22;19998;-63
2022/04/01 09:50:09;;;;;;;1.90;1.85;;;;;;;0.45;95.31;94328.41;6368108;22;20349;-63
2022/04/01 09:52:36;;;;;;;1.98;1.95;;;;;;;0.47;95.46;94321.34;6367187;22;20331;-63
2022/04/01 09:55:02;;;;;;;1.90;1.90;;;;;;;0.48;95.44;94328.19;6368603;22;20346;-64
2022/04/01 09:57:28;;;;;;;2.58;2.47;;;;;;;0.49;94.50;94331.63;6367252;22;20077;-62
2022/04/01 09:59:54;;;;;;;3.03;2.83;;;;;;;0.33;94.91;94337.91;6367872;22;20006;-62
2022/04/01 10:02:20;;;;;;;3.83;3.63;;;;;;;0.22;96.29;94343.03;6367812;22;20453;-62
2022/04/01 10:04:45;;;;;;;2.70;2.60;;;;;;;0.30;96.44;94337.31;6367930;22;20077;-62
2022/04/01 10:07:12;;;;;;;2.95;2.00;;;;;;;0.28;96.28;94340.84;6368079;22;20010;-62
2022/04/01 10:09:39;;;;;;;2.70;2.60;;;;;;;0.17;96.26;94334.78;6367877;22;20002;-63
2022/04/01 10:12:10;;;;;;;4.13;3.72;;;;;;;0.05;97.92;94339.94;6368258;22;20006;-63
2022/04/01 10:14:39;;;;;;;3.42;3.22;;;;;;;-0.01;97.62;94342.94;6368320;22;20078;-63
2022/04/01 10:17:09;;;;;;;2.90;2.80;;;;;;;0.10;95.65;94350.78;6368224;22;20002;-63
2022/04/01 10:19:38;;;;;;;2.70;2.60;;;;;;;0.04;95.47;94352.97;6368261;22;20009;-63
2022/04/01 10:22:05;;;;;;;2.95;2.80;;;;;;;0.19;95.60;94359.63;6368287;22;20032;-63
2022/04/01 10:24:52;;;;;;;3.40;2.85;;;;;;;0.19;95.39;94367.41;6367633;22;20002;-63
2022/04/01 10:27:40;;;;;;;3.67;3.47;;;;;;;0.29;94.33;94362.38;6367909;22;19998;-62
2022/04/01 10:30:09;;;;;;;3.85;3.55;;;;;;;0.30;93.92;94360.59;6368209;22;20036;-64
2022/04/01 10:32:34;;;;;;;5.25;4.75;;;;;;;0.29;92.49;94367.56;6367890;22;19998;-64
2022/04/01 10:35:01;;;;;;;3.33;3.13;;;;;;;0.30;91.80;94368.38;6368090;22;20006;-62
2022/04/01 10:37:28;;;;;;;4.82;4.40;;;;;;;0.53;91.38;94364.91;6367597;22;20033;-61
2022/04/01 10:40:05;;;;;;;4.15;3.42;;;;;;;0.53;91.45;94374.47;6367831;22;20007;-63
2022/04/01 10:42:35;;;;;;;2.70;2.60;;;;;;;0.50;90.36;94375.50;6368051;22;20347;-63
2022/04/01 10:45:04;;;;;;;2.70;2.50;;;;;;;0.51;89.94;94373.75;6367832;22;20063;-63
2022/04/01 10:53:38;;;;;;;2.35;2.25;;;;;;;0.30;89.61;94370.97;6367470;22;20094;-63
2022/04/01 10:56:25;;;;;;;2.17;2.08;;;;;;;0.18;89.31;94375.28;6367281;22;20502;-63
2022/04/01 10:59:03;;;;;;;2.35;2.25;;;;;;;0.17;87.73;94358.09;6367517;22;20044;-63
2022/04/01 11:01:29;;;;;;;2.30;2.20;;;;;;;0.07;87.27;94370.88;6367530;22;20312;-63
2022/04/01 11:04:10;;;;;;;2.00;1.90;;;;;;;0.05;86.39;94372.75;6367542;22;20002;-62
2022/04/01 11:07:12;;;;;;;1.73;1.73;;;;;;;0.12;86.66;94376.56;6365927;22;20058;-63
2022/04/01 11:09:47;;;;;;;2.08;1.98;;;;;;;0.37;85.98;94382.53;6366640;22;20002;-61
2022/04/01 11:12:19;;;;;;;2.47;2.38;;;;;;;0.30;86.82;94373.56;6367706;22;20006;-62
2022/04/01 11:14:53;;;;;;;1.60;1.60;;;;;;;0.24;86.63;94377.44;6367473;22;20002;-61
2022/04/01 11:17:20;;;;;;;2.37;2.27;;;;;;;0.31;87.87;94381.22;6367349;22;20025;-60
2022/04/01 11:20:02;;;;;;;1.90;1.90;;;;;;;0.35;84.21;94380.06;6367560;22;20508;-59
2022/04/01 11:22:42;;;;;;;1.98;1.98;;;;;;;0.34;84.93;94377.59;6367469;22;20453;-61
2022/04/01 11:25:12;;;;;;;1.75;1.75;;;;;;;0.18;81.20;94388.22;6367412;22;20010;-61
2022/04/01 11:27:48;;;;;;;2.40;2.30;;;;;;;0.08;83.32;94383.72;6366883;22;20013;-61
2022/04/01 11:30:16;;;;;;;2.17;2.08;;;;;;;0.15;82.80;94389.28;6367363;22;20017;-61
2022/04/01 11:32:45;;;;;;;2.55;2.45;;;;;;;0.03;82.98;94384.97;6367484;22;20025;-61
2022/04/01 11:35:12;;;;;;;2.00;1.90;;;;;;;-0.02;82.69;94383.53;6367615;22;20071;-61
2022/04/01 11:37:41;;;;;;;1.80;1.80;;;;;;;-0.08;83.58;94386.56;6366252;22;19998;-61
2022/04/01 11:40:16;;;;;;;2.80;2.70;;;;;;;0.05;85.40;94388.28;6365152;22;20037;-61
2022/04/01 11:42:51;;;;;;;1.90;1.83;;;;;;;0.14;84.39;94387.63;6365110;22;20010;-61
2022/04/01 11:45:16;;;;;;;3.33;3.08;;;;;;;0.20;86.80;94391.50;6364753;22;20026;-61
2022/04/01 11:47:42;;;;;;;3.17;2.90;;;;;;;0.42;86.00;94383.84;6364593;22;20243;-61
2022/04/01 11:50:13;;;;;;;2.28;2.17;;;;;;;0.50;84.52;94378.09;6364140;22;20005;-60